Time;durP1;ratioP1;P1;durP2;ratioP2;P2;SDS_P1;SDS_P2;PMS_P1;PMS_P2;Temp;Humidity;BMP_temperature;BMP_pressure;BME280_temperature;BME280_humidity;BME280_pressure;Samples;Min_cycle;Max_cycle;Signal;HPM_P1;HPM_P2
2021/09/10 00:01:18;;;;;;;15.63;13.23;;;;;;;;;;5067600;28;20024;-77
2021/09/10 00:03:44;;;;;;;16.65;14.25;;;;;;;;;;5067337;28;20044;-76
2021/09/10 00:06:09;;;;;;;17.27;13.63;;;;;;;;;;5063580;28;20033;-76
2021/09/10 00:08:35;;;;;;;14.82;12.27;;;;;;;;;;5077369;28;20115;-76
2021/09/10 00:11:01;;;;;;;15.43;12.27;;;;;;;;;;5073418;28;20451;-77
2021/09/10 00:13:26;;;;;;;15.50;12.90;;;;;;;;;;5083655;28;20098;-76
2021/09/10 00:15:52;;;;;;;19.58;13.32;;;;;;;;;;5080583;28;20487;-77
2021/09/10 00:18:18;;;;;;;17.58;13.35;;;;;;;;;;5071522;28;20066;-76
2021/09/10 00:20:43;;;;;;;17.42;13.68;;;;;;;;;;5073029;28;20056;-76
2021/09/10 00:23:09;;;;;;;16.70;13.45;;;;;;;;;;5090051;28;20389;-76
2021/09/10 00:25:34;;;;;;;16.05;13.30;;;;;;;;;;5095295;28;20384;-76
2021/09/10 00:28:00;;;;;;;17.02;13.20;;;;;;;;;;5076531;28;20497;-76
2021/09/10 00:30:25;;;;;;;15.60;12.93;;;;;;;;;;5068437;28;20032;-76
2021/09/10 00:32:51;;;;;;;17.42;13.27;;;;;;;;;;5086240;28;20024;-76
2021/09/10 00:35:16;;;;;;;17.65;14.85;;;;;;;;;;5067182;28;20151;-76
2021/09/10 00:37:42;;;;;;;16.48;13.82;;;;;;;;;;5058820;28;20468;-76
2021/09/10 00:40:08;;;;;;;18.35;13.57;;;;;;;;;;5069476;28;20046;-76
2021/09/10 00:42:34;;;;;;;16.65;13.73;;;;;;;;;;5073938;28;20491;-76
2021/09/10 00:44:59;;;;;;;13.95;11.98;;;;;;;;;;5061694;28;20035;-76
2021/09/10 00:47:25;;;;;;;15.48;13.30;;;;;;;;;;5071388;28;20033;-76
2021/09/10 00:49:51;;;;;;;14.02;12.07;;;;;;;;;;5073221;28;20365;-76
2021/09/10 00:52:17;;;;;;;16.73;12.48;;;;;;;;;;5068965;28;20031;-76
2021/09/10 00:54:43;;;;;;;16.05;12.40;;;;;;;;;;5062037;28;20028;-76
2021/09/10 00:57:09;;;;;;;14.98;13.00;;;;;;;;;;5064239;28;21415;-76
2021/09/10 00:59:34;;;;;;;16.80;12.40;;;;;;;;;;5063590;28;20041;-76
2021/09/10 01:02:01;;;;;;;13.45;11.48;;;;;;;;;;5069238;28;20032;-75
2021/09/10 01:04:26;;;;;;;15.00;12.10;;;;;;;;;;5065763;28;20388;-76
2021/09/10 01:06:54;;;;;;;16.05;12.93;;;;;;;;;;5064368;28;20028;-76
2021/09/10 01:09:21;;;;;;;16.45;13.50;;;;;;;;;;5065952;28;20025;-76
2021/09/10 01:11:51;;;;;;;15.27;13.07;;;;;;;;;;5056399;28;20032;-76
2021/09/10 01:14:18;;;;;;;15.23;12.23;;;;;;;;;;5063523;28;20036;-76
2021/09/10 01:16:47;;;;;;;15.05;11.95;;;;;;;;;;5068599;28;20028;-76
2021/09/10 01:19:28;;;;;;;16.17;12.32;;;;;;;;;;5075224;28;20103;-76
2021/09/10 01:21:59;;;;;;;15.63;12.45;;;;;;;;;;5065041;28;20090;-75
2021/09/10 01:24:26;;;;;;;14.30;12.13;;;;;;;;;;5074885;28;20103;-75
2021/09/10 01:26:52;;;;;;;14.85;12.10;;;;;;;;;;5069117;28;20023;-76
2021/09/10 01:29:17;;;;;;;14.85;12.18;;;;;;;;;;5079866;28;20036;-76
2021/09/10 01:31:43;;;;;;;14.52;12.20;;;;;;;;;;5070070;28;20080;-76
2021/09/10 01:34:08;;;;;;;14.25;12.45;;;;;;;;;;5076723;28;20024;-75
2021/09/10 01:36:34;;;;;;;16.10;12.43;;;;;;;;;;5072908;28;20032;-75
2021/09/10 01:38:59;;;;;;;13.15;11.68;;;;;;;;;;5068643;28;20032;-76
2021/09/10 01:41:25;;;;;;;15.02;12.55;;;;;;;;;;5061063;28;20032;-75
2021/09/10 01:43:50;;;;;;;18.27;11.88;;;;;;;;;;5062873;28;20430;-75
2021/09/10 01:46:17;;;;;;;17.20;12.40;;;;;;;;;;5071957;28;20041;-74
2021/09/10 01:48:42;;;;;;;15.85;12.15;;;;;;;;;;5062008;28;20357;-75
2021/09/10 01:51:08;;;;;;;15.85;12.88;;;;;;;;;;5069494;28;20023;-75
2021/09/10 01:53:33;;;;;;;14.20;12.05;;;;;;;;;;5062700;28;20079;-74
2021/09/10 01:55:58;;;;;;;16.20;13.32;;;;;;;;;;5074950;28;20019;-74
2021/09/10 01:58:24;;;;;;;17.77;13.05;;;;;;;;;;5053778;28;20135;-74
2021/09/10 02:00:50;;;;;;;16.20;14.00;;;;;;;;;;5060253;28;20117;-75
2021/09/10 02:03:16;;;;;;;19.00;13.57;;;;;;;;;;5079832;28;20031;-75
2021/09/10 02:05:41;;;;;;;17.30;13.43;;;;;;;;;;5064983;28;20062;-75
2021/09/10 02:08:07;;;;;;;19.38;13.15;;;;;;;;;;5077090;28;20073;-75
2021/09/10 02:10:32;;;;;;;16.02;13.35;;;;;;;;;;5069359;28;20398;-75
2021/09/10 02:12:58;;;;;;;17.30;13.25;;;;;;;;;;5070319;28;20107;-75
2021/09/10 02:15:24;;;;;;;18.20;12.70;;;;;;;;;;5066054;28;20150;-74
2021/09/10 02:17:49;;;;;;;13.98;12.48;;;;;;;;;;5067398;28;20115;-75
2021/09/10 02:20:15;;;;;;;14.85;12.90;;;;;;;;;;5070962;28;20426;-75
2021/09/10 02:22:44;;;;;;;17.95;14.32;;;;;;;;;;5075260;28;20549;-75
2021/09/10 02:25:09;;;;;;;14.63;13.00;;;;;;;;;;5056231;28;20028;-75
2021/09/10 02:27:35;;;;;;;15.32;12.40;;;;;;;;;;5062101;28;20481;-75
2021/09/10 02:30:01;;;;;;;16.25;12.43;;;;;;;;;;5071859;28;20476;-75
2021/09/10 02:32:26;;;;;;;15.02;11.63;;;;;;;;;;5077596;28;20035;-76
2021/09/10 02:34:52;;;;;;;15.27;12.55;;;;;;;;;;5068084;28;20083;-75
2021/09/10 02:37:17;;;;;;;15.50;13.38;;;;;;;;;;5062677;28;20099;-75
2021/09/10 02:39:43;;;;;;;15.73;13.00;;;;;;;;;;5069935;28;20037;-75
2021/09/10 02:42:08;;;;;;;14.50;12.68;;;;;;;;;;5072779;28;20020;-75
2021/09/10 02:44:34;;;;;;;15.68;12.48;;;;;;;;;;5058376;28;20041;-75
2021/09/10 02:46:59;;;;;;;17.35;13.95;;;;;;;;;;5063186;28;20465;-75
2021/09/10 02:49:25;;;;;;;14.73;12.50;;;;;;;;;;5076346;28;20074;-75
2021/09/10 02:51:50;;;;;;;17.85;13.50;;;;;;;;;;5062780;28;20029;-76
2021/09/10 02:54:16;;;;;;;15.85;13.50;;;;;;;;;;5064787;28;20029;-76
2021/09/10 02:56:41;;;;;;;15.45;13.00;;;;;;;;;;5068856;28;20043;-75
2021/09/10 02:59:07;;;;;;;15.23;12.57;;;;;;;;;;5066868;28;20074;-76
2021/09/10 03:01:32;;;;;;;16.73;12.43;;;;;;;;;;5080252;28;20433;-75
2021/09/10 03:03:59;;;;;;;14.43;12.73;;;;;;;;;;5072317;28;20044;-75
2021/09/10 03:06:24;;;;;;;14.43;12.80;;;;;;;;;;5074458;28;20077;-75
2021/09/10 03:08:50;;;;;;;16.15;14.13;;;;;;;;;;5072687;28;20020;-75
2021/09/10 03:11:15;;;;;;;16.90;13.50;;;;;;;;;;5062866;28;20086;-75
2021/09/10 03:13:41;;;;;;;13.63;11.88;;;;;;;;;;5064390;28;20111;-75
2021/09/10 03:16:06;;;;;;;14.00;10.98;;;;;;;;;;5062315;28;20024;-76
2021/09/10 03:18:32;;;;;;;15.13;12.32;;;;;;;;;;5067766;28;20021;-76
2021/09/10 03:20:58;;;;;;;13.80;12.20;;;;;;;;;;5060687;28;20499;-75
2021/09/10 03:23:23;;;;;;;14.27;11.48;;;;;;;;;;5052413;28;20029;-75
2021/09/10 03:25:49;;;;;;;14.02;11.77;;;;;;;;;;5065688;28;20039;-75
2021/09/10 03:28:14;;;;;;;13.55;11.23;;;;;;;;;;5059124;28;20448;-75
2021/09/10 03:30:40;;;;;;;15.30;11.30;;;;;;;;;;5061611;28;20044;-75
2021/09/10 03:33:05;;;;;;;15.57;12.70;;;;;;;;;;5044486;28;20039;-75
2021/09/10 03:35:31;;;;;;;15.75;11.93;;;;;;;;;;5064781;28;20024;-75
2021/09/10 03:37:56;;;;;;;15.68;12.50;;;;;;;;;;5050938;28;20032;-76
2021/09/10 03:40:22;;;;;;;17.58;12.10;;;;;;;;;;5065903;28;20115;-75
2021/09/10 03:42:47;;;;;;;15.45;12.15;;;;;;;;;;5065339;28;20107;-76
2021/09/10 03:45:13;;;;;;;13.73;12.15;;;;;;;;;;5066325;28;20491;-75
2021/09/10 03:47:38;;;;;;;12.65;11.35;;;;;;;;;;5071135;28;20032;-75
2021/09/10 03:50:04;;;;;;;13.43;12.02;;;;;;;;;;5064533;28;20032;-75
2021/09/10 03:52:30;;;;;;;16.48;12.80;;;;;;;;;;5066189;28;20024;-75
2021/09/10 03:54:55;;;;;;;16.63;13.27;;;;;;;;;;5076362;28;20028;-75
2021/09/10 03:57:21;;;;;;;18.63;15.35;;;;;;;;;;5060997;28;20074;-75
2021/09/10 03:59:46;;;;;;;18.17;14.73;;;;;;;;;;5070118;28;20101;-75
2021/09/10 04:02:12;;;;;;;17.85;14.35;;;;;;;;;;5077333;28;20372;-75
2021/09/10 04:04:37;;;;;;;19.20;16.05;;;;;;;;;;5071632;28;20021;-75
2021/09/10 04:07:03;;;;;;;17.73;15.65;;;;;;;;;;5072064;28;20480;-75
2021/09/10 04:09:28;;;;;;;16.15;14.13;;;;;;;;;;5066145;28;20024;-75
2021/09/10 04:11:54;;;;;;;15.50;13.80;;;;;;;;;;5075275;28;20028;-76
2021/09/10 04:14:19;;;;;;;15.85;14.13;;;;;;;;;;5076537;28;20039;-76
2021/09/10 04:16:45;;;;;;;15.20;13.45;;;;;;;;;;5072125;28;20100;-76
2021/09/10 04:19:10;;;;;;;15.10;12.85;;;;;;;;;;5048980;28;20036;-76
2021/09/10 04:21:35;;;;;;;14.38;12.82;;;;;;;;;;5073821;28;20024;-75
2021/09/10 04:24:01;;;;;;;18.08;12.95;;;;;;;;;;5076700;28;20020;-76
2021/09/10 04:26:27;;;;;;;17.50;13.65;;;;;;;;;;5079563;28;20380;-76
2021/09/10 04:28:53;;;;;;;15.70;13.80;;;;;;;;;;5063714;28;20025;-76
2021/09/10 04:31:19;;;;;;;16.05;13.25;;;;;;;;;;5070984;28;20024;-76
2021/09/10 04:33:46;;;;;;;15.00;12.98;;;;;;;;;;5068091;28;20029;-76
2021/09/10 04:36:13;;;;;;;16.40;13.43;;;;;;;;;;5059658;28;20025;-76
2021/09/10 04:38:38;;;;;;;18.90;13.95;;;;;;;;;;5073656;28;20033;-76
2021/09/10 04:41:04;;;;;;;16.40;13.60;;;;;;;;;;5054944;28;20079;-77
2021/09/10 04:43:29;;;;;;;17.75;13.38;;;;;;;;;;5058203;28;22114;-77
2021/09/10 04:45:54;;;;;;;15.52;13.93;;;;;;;;;;5077370;28;20020;-76
2021/09/10 04:48:20;;;;;;;15.70;13.82;;;;;;;;;;5078038;28;20024;-77
2021/09/10 04:50:45;;;;;;;16.77;14.48;;;;;;;;;;5088468;28;20021;-76
2021/09/10 04:53:11;;;;;;;15.57;13.95;;;;;;;;;;5082959;28;20020;-77
2021/09/10 04:55:36;;;;;;;14.30;12.82;;;;;;;;;;5078515;28;20020;-76
2021/09/10 04:58:02;;;;;;;14.32;12.77;;;;;;;;;;5089336;28;20376;-76
2021/09/10 05:00:27;;;;;;;14.57;12.95;;;;;;;;;;5086285;28;20064;-77
2021/09/10 05:02:52;;;;;;;14.20;12.52;;;;;;;;;;5081793;28;20016;-76
2021/09/10 05:05:19;;;;;;;13.98;12.45;;;;;;;;;;5095242;28;20020;-77
2021/09/10 05:07:44;;;;;;;15.55;13.80;;;;;;;;;;5076607;28;20403;-76
2021/09/10 05:10:10;;;;;;;17.73;14.90;;;;;;;;;;5081337;28;20028;-77
2021/09/10 05:12:36;;;;;;;18.60;14.93;;;;;;;;;;5072937;28;20086;-76
2021/09/10 05:15:02;;;;;;;16.05;14.35;;;;;;;;;;5083527;28;20538;-76
2021/09/10 05:17:27;;;;;;;17.63;15.40;;;;;;;;;;5073391;28;20055;-73
2021/09/10 05:19:53;;;;;;;19.60;16.05;;;;;;;;;;5072976;28;20020;-76
2021/09/10 05:22:18;;;;;;;18.17;16.17;;;;;;;;;;5074214;28;20032;-76
2021/09/10 05:24:45;;;;;;;18.00;15.68;;;;;;;;;;5076999;28;20027;-76
2021/09/10 05:27:10;;;;;;;20.58;16.00;;;;;;;;;;5092258;28;20055;-76
2021/09/10 05:29:36;;;;;;;23.55;18.08;;;;;;;;;;5073903;28;20017;-77
2021/09/10 05:32:01;;;;;;;22.75;18.60;;;;;;;;;;5077187;28;20103;-75
2021/09/10 05:34:27;;;;;;;22.02;18.63;;;;;;;;;;5080818;28;20534;-76
2021/09/10 05:36:53;;;;;;;19.92;17.52;;;;;;;;;;5072613;28;20029;-76
2021/09/10 05:39:18;;;;;;;20.63;18.05;;;;;;;;;;5072654;28;20027;-76
2021/09/10 05:41:43;;;;;;;23.80;18.95;;;;;;;;;;5072637;28;20017;-76
2021/09/10 05:44:09;;;;;;;22.85;19.27;;;;;;;;;;5073600;28;20024;-76
2021/09/10 05:46:34;;;;;;;24.92;20.98;;;;;;;;;;5074340;28;20163;-76
2021/09/10 05:49:00;;;;;;;25.83;21.08;;;;;;;;;;5073962;28;20528;-76
2021/09/10 05:51:25;;;;;;;23.48;20.70;;;;;;;;;;5073359;28;20103;-75
2021/09/10 05:53:51;;;;;;;25.35;20.63;;;;;;;;;;5074094;28;20028;-75
2021/09/10 05:56:16;;;;;;;25.17;20.52;;;;;;;;;;5074436;28;20024;-76
2021/09/10 05:58:42;;;;;;;26.95;20.65;;;;;;;;;;5074150;28;20041;-76
2021/09/10 06:01:07;;;;;;;23.60;20.85;;;;;;;;;;5072471;28;20024;-75
2021/09/10 06:03:32;;;;;;;23.02;20.52;;;;;;;;;;5073353;28;20537;-76
2021/09/10 06:05:58;;;;;;;23.38;18.85;;;;;;;;;;5073600;28;20119;-76
2021/09/10 06:08:23;;;;;;;19.80;17.65;;;;;;;;;;5073283;28;20103;-76
2021/09/10 06:10:49;;;;;;;20.70;18.30;;;;;;;;;;5074392;28;20070;-76
2021/09/10 06:13:14;;;;;;;22.35;19.20;;;;;;;;;;5085408;28;20028;-76
2021/09/10 06:15:39;;;;;;;25.42;20.48;;;;;;;;;;5094352;28;20379;-76
2021/09/10 06:18:05;;;;;;;21.98;19.50;;;;;;;;;;5073480;28;20055;-79
2021/09/10 06:20:31;;;;;;;21.98;19.30;;;;;;;;;;5071160;28;20074;-73
2021/09/10 06:22:57;;;;;;;22.83;19.80;;;;;;;;;;5072886;28;20082;-77
2021/09/10 06:25:24;;;;;;;24.83;19.75;;;;;;;;;;5076973;28;20024;-74
2021/09/10 06:27:51;;;;;;;27.08;23.77;;;;;;;;;;5077751;28;20035;-78
2021/09/10 06:30:17;;;;;;;28.02;24.27;;;;;;;;;;5064531;28;20020;-75
2021/09/10 06:32:42;;;;;;;26.45;23.38;;;;;;;;;;5054236;28;20028;-76
2021/09/10 06:35:08;;;;;;;25.52;22.52;;;;;;;;;;5071822;28;20017;-75
2021/09/10 06:37:34;;;;;;;28.55;23.45;;;;;;;;;;5071366;28;20115;-75
2021/09/10 06:39:59;;;;;;;26.10;22.25;;;;;;;;;;5072314;28;20035;-75
2021/09/10 06:42:25;;;;;;;25.15;20.75;;;;;;;;;;5073815;28;20039;-77
2021/09/10 06:44:52;;;;;;;23.08;19.48;;;;;;;;;;5078415;28;20359;-75
2021/09/10 06:47:18;;;;;;;22.27;18.73;;;;;;;;;;5076250;28;20464;-76
2021/09/10 06:49:45;;;;;;;20.80;17.38;;;;;;;;;;5073564;28;20429;-75
2021/09/10 06:52:10;;;;;;;23.35;17.10;;;;;;;;;;5075643;28;20111;-76
2021/09/10 06:54:36;;;;;;;18.55;16.52;;;;;;;;;;5057458;28;20120;-75
2021/09/10 06:57:01;;;;;;;18.45;16.45;;;;;;;;;;5073848;28;20040;-76
2021/09/10 06:59:27;;;;;;;18.98;16.27;;;;;;;;;;5073032;28;20389;-76
2021/09/10 07:01:52;;;;;;;18.75;15.27;;;;;;;;;;5074139;28;20415;-75
2021/09/10 07:04:18;;;;;;;16.33;13.18;;;;;;;;;;5073350;28;20478;-75
2021/09/10 07:06:43;;;;;;;16.30;14.38;;;;;;;;;;5055225;28;20070;-75
2021/09/10 07:09:09;;;;;;;15.35;13.63;;;;;;;;;;5079091;28;20439;-74
2021/09/10 07:11:35;;;;;;;16.25;12.85;;;;;;;;;;5073978;28;20104;-76
2021/09/10 07:14:02;;;;;;;14.40;12.38;;;;;;;;;;5073501;28;20032;-76
2021/09/10 07:16:27;;;;;;;15.00;12.60;;;;;;;;;;5072619;28;20036;-75
2021/09/10 07:18:53;;;;;;;12.77;10.70;;;;;;;;;;5078492;28;20438;-78
2021/09/10 07:21:18;;;;;;;12.93;10.75;;;;;;;;;;5071793;28;20031;-77
2021/09/10 07:23:45;;;;;;;12.70;9.27;;;;;;;;;;5073980;28;20041;-77
2021/09/10 07:26:10;;;;;;;12.70;9.30;;;;;;;;;;5065957;28;20024;-77
2021/09/10 07:28:37;;;;;;;10.48;9.43;;;;;;;;;;5072231;28;20487;-78
2021/09/10 07:31:04;;;;;;;10.90;8.63;;;;;;;;;;5074786;28;20040;-77
2021/09/10 07:33:29;;;;;;;15.38;9.57;;;;;;;;;;5073986;28;20153;-76
2021/09/10 07:35:55;;;;;;;10.57;9.00;;;;;;;;;;5075729;28;20099;-77
2021/09/10 07:38:20;;;;;;;11.85;9.20;;;;;;;;;;5078002;28;20637;-76
2021/09/10 07:40:47;;;;;;;11.95;9.55;;;;;;;;;;5071244;28;20025;-75
2021/09/10 07:43:13;;;;;;;15.52;9.15;;;;;;;;;;5053652;28;20115;-74
2021/09/10 07:45:38;;;;;;;12.63;9.40;;;;;;;;;;5069307;28;20543;-78
2021/09/10 07:48:04;;;;;;;11.52;9.00;;;;;;;;;;5092325;28;20099;-77
2021/09/10 07:50:30;;;;;;;10.48;8.80;;;;;;;;;;5077130;28;20017;-77
2021/09/10 07:52:55;;;;;;;13.00;8.52;;;;;;;;;;5070855;28;20043;-75
2021/09/10 07:55:21;;;;;;;12.75;8.88;;;;;;;;;;5076293;28;20543;-76
2021/09/10 07:57:46;;;;;;;15.45;8.40;;;;;;;;;;5079038;28;20031;-74
2021/09/10 08:00:12;;;;;;;10.73;8.50;;;;;;;;;;5078763;28;20051;-76
2021/09/10 08:02:38;;;;;;;12.82;8.27;;;;;;;;;;5077515;28;20021;-75
2021/09/10 08:05:04;;;;;;;8.57;7.60;;;;;;;;;;5092339;28;20027;-76
2021/09/10 08:07:30;;;;;;;11.18;7.70;;;;;;;;;;5076992;28;20031;-73
2021/09/10 08:09:55;;;;;;;9.00;8.07;;;;;;;;;;5081395;28;20028;-76
2021/09/10 08:12:21;;;;;;;11.93;8.63;;;;;;;;;;5075430;28;20052;-77
2021/09/10 08:14:46;;;;;;;12.00;8.32;;;;;;;;;;5072348;28;20024;-75
2021/09/10 08:17:12;;;;;;;10.02;8.25;;;;;;;;;;5079089;28;20059;-76
2021/09/10 08:19:37;;;;;;;11.15;8.43;;;;;;;;;;5085029;28;20067;-75
2021/09/10 08:22:03;;;;;;;9.00;7.95;;;;;;;;;;5076278;28;20029;-76
2021/09/10 08:24:29;;;;;;;11.07;8.32;;;;;;;;;;5053877;28;20028;-74
2021/09/10 08:26:55;;;;;;;12.32;8.23;;;;;;;;;;5075618;28;20060;-74
2021/09/10 08:29:20;;;;;;;15.32;8.57;;;;;;;;;;5071841;28;20036;-76
2021/09/10 08:31:46;;;;;;;10.27;7.85;;;;;;;;;;5073992;28;20028;-78
2021/09/10 08:34:11;;;;;;;9.63;7.60;;;;;;;;;;5073846;28;20021;-77
2021/09/10 08:36:37;;;;;;;10.68;7.82;;;;;;;;;;5077545;28;20024;-77
2021/09/10 08:39:03;;;;;;;9.95;7.22;;;;;;;;;;5089751;28;20024;-76
2021/09/10 08:41:32;;;;;;;11.80;7.95;;;;;;;;;;5090641;28;20028;-76
2021/09/10 08:44:02;;;;;;;10.20;7.63;;;;;;;;;;5083002;28;20025;-77
2021/09/10 08:46:28;;;;;;;12.85;7.43;;;;;;;;;;5074966;28;20026;-76
2021/09/10 08:48:54;;;;;;;11.10;7.53;;;;;;;;;;5084937;28;20106;-75
2021/09/10 08:51:20;;;;;;;8.95;7.45;;;;;;;;;;5077390;28;20196;-77
2021/09/10 08:53:45;;;;;;;11.32;7.50;;;;;;;;;;5074425;28;20460;-77
2021/09/10 08:56:11;;;;;;;11.48;7.45;;;;;;;;;;5073669;28;20028;-77
2021/09/10 08:58:37;;;;;;;14.98;7.22;;;;;;;;;;5074135;28;20076;-79
2021/09/10 09:01:04;;;;;;;10.80;6.60;;;;;;;;;;5075856;28;20657;-78
2021/09/10 09:03:31;;;;;;;8.48;7.28;;;;;;;;;;5071931;28;20498;-74
2021/09/10 09:05:57;;;;;;;9.35;7.28;;;;;;;;;;5095087;28;20545;-75
2021/09/10 09:08:23;;;;;;;9.15;6.95;;;;;;;;;;5082357;28;20025;-75
2021/09/10 09:11:01;;;;;;;9.02;6.63;;;;;;;;;;5073957;28;20031;-77
2021/09/10 09:13:45;;;;;;;8.00;6.60;;;;;;;;;;5070703;28;20013;-77
2021/09/10 09:16:15;;;;;;;10.38;6.30;;;;;;;;;;5038353;28;20037;-77
2021/09/10 09:18:43;;;;;;;13.20;7.10;;;;;;;;;;5071572;28;20024;-78
2021/09/10 09:21:09;;;;;;;9.00;6.85;;;;;;;;;;5073770;28;20500;-80
2021/09/10 09:23:36;;;;;;;8.48;6.13;;;;;;;;;;5073937;28;20032;-77
2021/09/10 09:26:13;;;;;;;8.73;6.05;;;;;;;;;;5080221;28;20074;-75
2021/09/10 09:28:38;;;;;;;8.35;5.90;;;;;;;;;;5066549;28;20036;-78
2021/09/10 09:31:09;;;;;;;10.93;6.13;;;;;;;;;;5075685;28;20023;-78
2021/09/10 09:33:39;;;;;;;8.15;5.82;;;;;;;;;;5055913;28;20040;-74
2021/09/10 09:36:08;;;;;;;9.63;5.75;;;;;;;;;;5073901;28;20041;-77
2021/09/10 09:38:35;;;;;;;6.78;5.50;;;;;;;;;;5071903;28;20032;-75
2021/09/10 09:41:07;;;;;;;8.05;5.72;;;;;;;;;;5071406;28;20020;-75
2021/09/10 09:43:48;;;;;;;9.55;5.90;;;;;;;;;;5072574;28;20020;-75
2021/09/10 09:46:16;;;;;;;10.45;6.00;;;;;;;;;;5073134;28;20375;-76
2021/09/10 09:48:44;;;;;;;7.13;6.10;;;;;;;;;;5071137;28;20048;-77
2021/09/10 09:51:15;;;;;;;9.13;5.68;;;;;;;;;;5074026;28;20020;-77
2021/09/10 09:53:43;;;;;;;7.95;5.78;;;;;;;;;;5072392;28;20376;-76
2021/09/10 09:56:09;;;;;;;9.70;5.40;;;;;;;;;;5072940;28;20083;-76
2021/09/10 09:58:36;;;;;;;9.70;5.25;;;;;;;;;;5072595;28;20048;-76
2021/09/10 10:01:03;;;;;;;7.65;5.93;;;;;;;;;;5072352;28;20036;-75
2021/09/10 10:03:29;;;;;;;8.02;5.50;;;;;;;;;;5067876;28;20104;-74
2021/09/10 10:06:01;;;;;;;7.50;5.53;;;;;;;;;;5074104;28;20111;-75
2021/09/10 10:08:37;;;;;;;8.23;5.60;;;;;;;;;;5076894;28;20086;-78
2021/09/10 10:11:37;;;;;;;7.63;5.85;;;;;;;;;;5057343;28;21408;-76
2021/09/10 10:14:06;;;;;;;7.70;5.50;;;;;;;;;;5075375;28;20082;-76
2021/09/10 10:16:43;;;;;;;8.82;5.35;;;;;;;;;;5072206;28;20036;-76
2021/09/10 10:19:21;;;;;;;8.52;5.22;;;;;;;;;;5072020;28;20032;-73
2021/09/10 10:21:52;;;;;;;6.85;5.10;;;;;;;;;;5072825;28;20476;-73
2021/09/10 10:24:41;;;;;;;6.13;4.97;;;;;;;;;;5055012;28;20090;-72
2021/09/10 10:27:40;;;;;;;7.38;5.32;;;;;;;;;;5072963;28;20028;-80
2021/09/10 10:30:15;;;;;;;7.45;4.90;;;;;;;;;;5074430;28;20028;-77
2021/09/10 10:32:42;;;;;;;7.35;5.22;;;;;;;;;;5073061;28;20485;-73
2021/09/10 10:35:15;;;;;;;7.57;5.38;;;;;;;;;;5081124;28;20384;-72
2021/09/10 10:38:14;;;;;;;9.40;5.38;;;;;;;;;;5079771;28;20024;-72
2021/09/10 10:40:50;;;;;;;8.23;5.65;;;;;;;;;;5053398;28;20431;-73
2021/09/10 10:43:20;;;;;;;7.60;5.32;;;;;;;;;;5072475;28;20035;-75
2021/09/10 10:45:45;;;;;;;6.88;5.40;;;;;;;;;;5071688;28;20032;-73
2021/09/10 10:48:29;;;;;;;8.75;5.95;;;;;;;;;;5071593;28;20032;-74
2021/09/10 10:51:17;;;;;;;6.05;5.03;;;;;;;;;;5076480;28;20039;-75
2021/09/10 10:53:45;;;;;;;7.43;5.50;;;;;;;;;;5063179;28;20024;-75
2021/09/10 10:56:32;;;;;;;9.27;5.45;;;;;;;;;;5076604;28;20043;-76
2021/09/10 11:02:16;;;;;;;8.27;5.80;;;;;;;;;;5070926;28;20115;-73
2021/09/10 11:04:47;;;;;;;9.32;5.97;;;;;;;;;;5074669;28;20380;-74
2021/09/10 11:07:13;;;;;;;10.20;5.85;;;;;;;;;;5071617;28;20512;-74
2021/09/10 11:09:40;;;;;;;7.10;5.75;;;;;;;;;;5071999;28;20388;-74
2021/09/10 11:12:06;;;;;;;9.88;6.35;;;;;;;;;;5071729;28;20380;-74
2021/09/10 11:14:32;;;;;;;8.20;5.75;;;;;;;;;;5082167;28;20036;-75
2021/09/10 11:17:14;;;;;;;8.25;6.20;;;;;;;;;;5084909;28;20031;-75
2021/09/10 11:19:47;;;;;;;9.40;5.78;;;;;;;;;;5088256;28;20036;-75
2021/09/10 11:22:12;;;;;;;8.85;6.00;;;;;;;;;;5087174;28;20029;-74
2021/09/10 11:24:38;;;;;;;6.75;5.85;;;;;;;;;;5088444;28;20510;-74
2021/09/10 11:27:25;;;;;;;7.85;5.50;;;;;;;;;;5074517;28;20021;-74
2021/09/10 11:29:51;;;;;;;7.53;5.78;;;;;;;;;;5050743;28;20040;-74
2021/09/10 11:32:34;;;;;;;7.35;5.88;;;;;;;;;;5070646;28;20418;-74
2021/09/10 11:35:01;;;;;;;7.55;6.43;;;;;;;;;;5071145;28;20016;-74
2021/09/10 11:37:29;;;;;;;9.52;6.35;;;;;;;;;;5076463;28;20522;-73
2021/09/10 11:39:58;;;;;;;7.25;6.40;;;;;;;;;;5060338;28;20025;-76
2021/09/10 11:42:33;;;;;;;10.95;6.40;;;;;;;;;;5054048;28;20463;-75
2021/09/10 11:45:25;;;;;;;7.88;6.72;;;;;;;;;;5072247;28;20553;-72
2021/09/10 11:47:51;;;;;;;8.98;6.95;;;;;;;;;;5070426;28;20047;-74
2021/09/10 11:50:16;;;;;;;9.65;7.10;;;;;;;;;;5071245;28;20119;-74
2021/09/10 11:52:41;;;;;;;9.38;7.15;;;;;;;;;;5071582;28;20031;-73
2021/09/10 11:55:10;;;;;;;9.15;7.30;;;;;;;;;;5083391;28;20028;-72
2021/09/10 11:57:36;;;;;;;8.60;7.70;;;;;;;;;;5072513;28;20051;-72
2021/09/10 12:00:04;;;;;;;9.70;7.43;;;;;;;;;;5072066;28;20158;-72
2021/09/10 12:02:30;;;;;;;11.88;7.50;;;;;;;;;;5053852;28;20386;-73
2021/09/10 12:04:57;;;;;;;8.68;7.78;;;;;;;;;;5070938;28;20032;-74
2021/09/10 12:07:33;;;;;;;11.38;8.00;;;;;;;;;;5075308;28;20630;-73
2021/09/10 12:09:58;;;;;;;12.05;7.70;;;;;;;;;;5075266;28;20035;-71
2021/09/10 12:12:28;;;;;;;9.68;7.55;;;;;;;;;;5073920;28;20024;-74
2021/09/10 12:14:58;;;;;;;10.02;8.23;;;;;;;;;;5074361;28;20020;-73
2021/09/10 12:17:23;;;;;;;9.35;8.10;;;;;;;;;;5074263;28;20021;-72
2021/09/10 12:19:59;;;;;;;10.25;8.30;;;;;;;;;;5074748;28;20480;-74
2021/09/10 12:22:29;;;;;;;10.63;8.55;;;;;;;;;;5074794;28;20035;-71
2021/09/10 12:25:20;;;;;;;9.77;7.38;;;;;;;;;;5074414;28;20028;-72
2021/09/10 12:27:47;;;;;;;8.57;7.72;;;;;;;;;;5074404;28;20035;-73
2021/09/10 12:30:14;;;;;;;10.57;7.90;;;;;;;;;;5074371;28;20024;-75
2021/09/10 12:32:39;;;;;;;9.88;7.55;;;;;;;;;;5074141;28;20028;-74
2021/09/10 12:35:05;;;;;;;11.40;8.02;;;;;;;;;;5074275;28;20031;-73
2021/09/10 12:37:31;;;;;;;9.15;7.90;;;;;;;;;;5074003;28;20078;-73
2021/09/10 12:39:57;;;;;;;11.02;8.07;;;;;;;;;;5073043;28;20020;-74
2021/09/10 12:42:23;;;;;;;10.02;7.93;;;;;;;;;;5073192;28;20036;-72
2021/09/10 12:44:49;;;;;;;8.73;7.45;;;;;;;;;;5056087;28;20032;-73
2021/09/10 12:47:14;;;;;;;11.30;8.02;;;;;;;;;;5074236;28;20032;-73
2021/09/10 12:49:40;;;;;;;9.20;7.95;;;;;;;;;;5074566;28;20031;-74
2021/09/10 12:52:05;;;;;;;9.27;7.45;;;;;;;;;;5074588;28;20023;-74
2021/09/10 12:54:34;;;;;;;8.52;6.85;;;;;;;;;;5074354;28;20047;-74
2021/09/10 12:57:00;;;;;;;9.00;8.10;;;;;;;;;;5074722;28;20032;-73
2021/09/10 12:59:25;;;;;;;10.63;7.80;;;;;;;;;;5074409;28;20068;-74
2021/09/10 13:01:51;;;;;;;9.73;8.10;;;;;;;;;;5078292;28;20096;-73
2021/09/10 13:04:17;;;;;;;9.25;7.93;;;;;;;;;;5074356;28;20047;-74
2021/09/10 13:06:43;;;;;;;9.20;7.97;;;;;;;;;;5074286;28;20120;-74
2021/09/10 13:09:08;;;;;;;8.75;7.55;;;;;;;;;;5073937;28;20427;-74
2021/09/10 13:11:34;;;;;;;10.43;8.18;;;;;;;;;;5072397;28;20059;-74
2021/09/10 13:14:00;;;;;;;8.60;7.78;;;;;;;;;;5077740;28;20023;-74
2021/09/10 13:16:26;;;;;;;9.50;8.07;;;;;;;;;;5075076;28;20037;-74
2021/09/10 13:18:51;;;;;;;8.98;7.80;;;;;;;;;;5055353;28;20103;-73
2021/09/10 13:21:17;;;;;;;9.90;7.47;;;;;;;;;;5074207;28;20111;-74
2021/09/10 13:23:43;;;;;;;9.40;7.80;;;;;;;;;;5074614;28;20063;-74
2021/09/10 13:26:09;;;;;;;10.38;8.02;;;;;;;;;;5073822;28;20020;-74
2021/09/10 13:28:34;;;;;;;10.77;7.90;;;;;;;;;;5074306;28;20389;-74
2021/09/10 13:31:00;;;;;;;8.95;7.72;;;;;;;;;;5073901;28;20052;-73
2021/09/10 13:33:25;;;;;;;8.73;7.82;;;;;;;;;;5071922;28;20048;-73
2021/09/10 13:35:51;;;;;;;10.13;7.80;;;;;;;;;;5082713;28;20115;-74
2021/09/10 13:38:16;;;;;;;11.35;7.88;;;;;;;;;;5076795;28;20380;-75
2021/09/10 13:40:41;;;;;;;8.45;7.40;;;;;;;;;;5072788;28;20043;-75
2021/09/10 13:43:07;;;;;;;9.80;7.75;;;;;;;;;;5072032;28;20032;-72
2021/09/10 13:45:32;;;;;;;14.02;8.20;;;;;;;;;;5073680;28;20099;-74
2021/09/10 13:47:58;;;;;;;10.65;8.18;;;;;;;;;;5078227;28;20073;-74
2021/09/10 13:50:24;;;;;;;9.77;7.45;;;;;;;;;;5072852;28;20388;-75
2021/09/10 13:52:51;;;;;;;8.57;7.40;;;;;;;;;;5073103;28;20029;-73
2021/09/10 13:55:17;;;;;;;9.52;7.38;;;;;;;;;;5073299;28;20056;-73
2021/09/10 13:57:43;;;;;;;8.82;7.93;;;;;;;;;;5084384;28;20051;-73
2021/09/10 14:00:08;;;;;;;9.90;8.05;;;;;;;;;;5082544;28;20040;-73
2021/09/10 14:02:35;;;;;;;8.40;7.53;;;;;;;;;;5077727;28;20036;-75
2021/09/10 14:05:01;;;;;;;10.70;8.13;;;;;;;;;;5063054;28;20032;-74
2021/09/10 14:07:27;;;;;;;9.18;8.15;;;;;;;;;;5072175;28;20128;-76
2021/09/10 14:09:52;;;;;;;9.05;8.10;;;;;;;;;;5073662;28;20155;-74
2021/09/10 14:12:18;;;;;;;8.75;7.60;;;;;;;;;;5071327;28;20369;-75
2021/09/10 14:14:43;;;;;;;8.68;7.57;;;;;;;;;;5063129;28;20036;-74
2021/09/10 14:17:08;;;;;;;8.57;7.18;;;;;;;;;;5074462;28;20022;-76
2021/09/10 14:19:34;;;;;;;9.68;7.97;;;;;;;;;;5067310;28;20016;-74
2021/09/10 14:21:59;;;;;;;9.77;8.07;;;;;;;;;;5080569;28;20056;-74
2021/09/10 14:24:25;;;;;;;8.60;7.70;;;;;;;;;;5072335;28;20047;-77
2021/09/10 14:26:51;;;;;;;8.43;7.47;;;;;;;;;;5072816;28;20032;-75
2021/09/10 14:29:16;;;;;;;10.88;7.35;;;;;;;;;;5083491;28;20487;-75
2021/09/10 14:31:42;;;;;;;9.40;7.38;;;;;;;;;;5073636;28;20023;-78